sensor_id;sensor_type;location;lat;lon;timestamp;pressure;altitude;pressure_sealevel;temperature;humidity
50394;BME280;36308;46.312;25.288;2023-04-08T00:01:57;96211.50;;;3.71;71.38
50394;BME280;36308;46.312;25.288;2023-04-08T00:04:23;96215.22;;;3.70;71.38
50394;BME280;36308;46.312;25.288;2023-04-08T00:06:48;96212.75;;;3.68;71.87
50394;BME280;36308;46.312;25.288;2023-04-08T00:09:14;96213.56;;;3.69;72.01
50394;BME280;36308;46.312;25.288;2023-04-08T00:11:40;96210.31;;;3.67;71.90
50394;BME280;36308;46.312;25.288;2023-04-08T00:14:05;96212.34;;;3.64;71.54
50394;BME280;36308;46.312;25.288;2023-04-08T00:16:31;96209.69;;;3.64;71.91
50394;BME280;36308;46.312;25.288;2023-04-08T00:18:57;96205.41;;;3.63;71.92
50394;BME280;36308;46.312;25.288;2023-04-08T00:21:22;96208.28;;;3.62;71.60
50394;BME280;36308;46.312;25.288;2023-04-08T00:23:48;96203.16;;;3.60;72.38
50394;BME280;36308;46.312;25.288;2023-04-08T00:26:14;96207.88;;;3.58;72.39
50394;BME280;36308;46.312;25.288;2023-04-08T00:28:40;96205.22;;;3.58;71.81
50394;BME280;36308;46.312;25.288;2023-04-08T00:31:07;96207.25;;;3.56;71.55
50394;BME280;36308;46.312;25.288;2023-04-08T00:33:32;96202.97;;;3.55;71.76
50394;BME280;36308;46.312;25.288;2023-04-08T00:35:58;96211.97;;;3.54;72.31
50394;BME280;36308;46.312;25.288;2023-04-08T00:38:23;96211.38;;;3.52;71.59
50394;BME280;36308;46.312;25.288;2023-04-08T00:40:48;96215.06;;;3.51;72.34
50394;BME280;36308;46.312;25.288;2023-04-08T00:43:15;96208.09;;;3.50;72.40
50394;BME280;36308;46.312;25.288;2023-04-08T00:45:41;96199.50;;;3.48;71.87
50394;BME280;36308;46.312;25.288;2023-04-08T00:48:06;96204.22;;;3.46;72.03
50394;BME280;36308;46.312;25.288;2023-04-08T00:50:32;96206.28;;;3.44;72.29
50394;BME280;36308;46.312;25.288;2023-04-08T00:52:57;96220.41;;;3.44;71.94
50394;BME280;36308;46.312;25.288;2023-04-08T00:55:23;96208.31;;;3.42;71.89
50394;BME280;36308;46.312;25.288;2023-04-08T00:57:48;96206.91;;;3.39;72.16
50394;BME280;36308;46.312;25.288;2023-04-08T01:00:14;96204.66;;;3.36;71.68
50394;BME280;36308;46.312;25.288;2023-04-08T01:02:48;96209.16;;;3.36;71.73
50394;BME280;36308;46.312;25.288;2023-04-08T01:05:35;96212.84;;;3.35;71.98
50394;BME280;36308;46.312;25.288;2023-04-08T01:08:06;96210.38;;;3.33;72.55
50394;BME280;36308;46.312;25.288;2023-04-08T01:10:34;96208.97;;;3.31;71.75
50394;BME280;36308;46.312;25.288;2023-04-08T01:13:07;96212.63;;;3.30;71.91
50394;BME280;36308;46.312;25.288;2023-04-08T01:15:36;96198.72;;;3.28;72.50
50394;BME280;36308;46.312;25.288;2023-04-08T01:18:06;96208.75;;;3.26;72.72
50394;BME280;36308;46.312;25.288;2023-04-08T01:20:32;96208.16;;;3.23;72.04
50394;BME280;36308;46.312;25.288;2023-04-08T01:25:53;96206.13;;;3.19;71.95
50394;BME280;36308;46.312;25.288;2023-04-08T01:28:20;96215.31;;;3.16;72.59
50394;BME280;36308;46.312;25.288;2023-04-08T01:30:47;96212.06;;;3.14;72.45
50394;BME280;36308;46.312;25.288;2023-04-08T01:33:15;96207.13;;;3.11;72.35
50394;BME280;36308;46.312;25.288;2023-04-08T01:35:41;96208.19;;;3.10;72.88
50394;BME280;36308;46.312;25.288;2023-04-08T01:38:09;96216.34;;;3.09;73.06
50394;BME280;36308;46.312;25.288;2023-04-08T01:40:37;96209.59;;;3.06;72.54
50394;BME280;36308;46.312;25.288;2023-04-08T01:43:06;96208.00;;;3.05;72.94
50394;BME280;36308;46.312;25.288;2023-04-08T01:45:32;96215.34;;;3.03;73.07
50394;BME280;36308;46.312;25.288;2023-04-08T01:47:59;96215.34;;;3.03;73.09
50394;BME280;36308;46.312;25.288;2023-04-08T01:50:26;96215.75;;;3.00;72.73
50394;BME280;36308;46.312;25.288;2023-04-08T01:52:53;96208.81;;;2.99;72.32
50394;BME280;36308;46.312;25.288;2023-04-08T01:55:20;96210.84;;;2.97;72.97
50394;BME280;36308;46.312;25.288;2023-04-08T01:57:51;96203.09;;;2.95;72.83
50394;BME280;36308;46.312;25.288;2023-04-08T02:00:21;96204.31;;;2.93;72.56
50394;BME280;36308;46.312;25.288;2023-04-08T02:02:47;96197.78;;;2.89;72.49
50394;BME280;36308;46.312;25.288;2023-04-08T02:05:13;96209.41;;;2.88;72.38
50394;BME280;36308;46.312;25.288;2023-04-08T02:07:39;96195.72;;;2.84;72.83
50394;BME280;36308;46.312;25.288;2023-04-08T02:10:05;96203.91;;;2.82;72.76
50394;BME280;36308;46.312;25.288;2023-04-08T02:12:32;96209.22;;;2.82;72.61
50394;BME280;36308;46.312;25.288;2023-04-08T02:14:58;96204.50;;;2.78;73.15
50394;BME280;36308;46.312;25.288;2023-04-08T02:17:32;96199.41;;;2.76;72.22
50394;BME280;36308;46.312;25.288;2023-04-08T02:25:10;96200.22;;;2.70;72.78
50394;BME280;36308;46.312;25.288;2023-04-08T02:27:38;96202.28;;;2.68;72.42
50394;BME280;36308;46.312;25.288;2023-04-08T02:30:05;96197.34;;;2.65;73.21
50394;BME280;36308;46.312;25.288;2023-04-08T02:32:33;96204.69;;;2.63;72.42
50394;BME280;36308;46.312;25.288;2023-04-08T02:35:03;96200.63;;;2.60;72.66
50394;BME280;36308;46.312;25.288;2023-04-08T02:37:30;96201.03;;;2.57;72.82
50394;BME280;36308;46.312;25.288;2023-04-08T02:39:56;96196.94;;;2.55;72.37
50394;BME280;36308;46.312;25.288;2023-04-08T02:42:22;96200.00;;;2.52;72.39
50394;BME280;36308;46.312;25.288;2023-04-08T02:44:48;96202.06;;;2.50;72.37
50394;BME280;36308;46.312;25.288;2023-04-08T02:47:13;96210.41;;;2.47;72.96
50394;BME280;36308;46.312;25.288;2023-04-08T02:49:39;96206.31;;;2.44;72.61
50394;BME280;36308;46.312;25.288;2023-04-08T02:52:04;96206.75;;;2.41;72.37
50394;BME280;36308;46.312;25.288;2023-04-08T02:54:30;96201.63;;;2.39;72.29
50394;BME280;36308;46.312;25.288;2023-04-08T02:56:55;96203.03;;;2.35;72.94
50394;BME280;36308;46.312;25.288;2023-04-08T02:59:21;96210.38;;;2.33;72.77
50394;BME280;36308;46.312;25.288;2023-04-08T03:01:46;96208.75;;;2.32;72.66
50394;BME280;36308;46.312;25.288;2023-04-08T03:04:12;96205.47;;;2.30;72.57
50394;BME280;36308;46.312;25.288;2023-04-08T03:06:37;96205.88;;;2.27;72.75
50394;BME280;36308;46.312;25.288;2023-04-08T03:09:03;96207.94;;;2.25;73.07
50394;BME280;36308;46.312;25.288;2023-04-08T03:11:30;96209.97;;;2.23;72.38
50394;BME280;36308;46.312;25.288;2023-04-08T03:13:55;96209.34;;;2.21;72.38
50394;BME280;36308;46.312;25.288;2023-04-08T03:16:21;96210.75;;;2.17;72.23
50394;BME280;36308;46.312;25.288;2023-04-08T03:18:48;96214.44;;;2.16;73.03
50394;BME280;36308;46.312;25.288;2023-04-08T03:21:14;96207.91;;;2.12;72.76
50394;BME280;36308;46.312;25.288;2023-04-08T03:23:40;96208.28;;;2.09;72.72
50394;BME280;36308;46.312;25.288;2023-04-08T03:26:05;96220.31;;;2.05;71.92
50394;BME280;36308;46.312;25.288;2023-04-08T03:28:31;96212.75;;;2.01;72.42
50394;BME280;36308;46.312;25.288;2023-04-08T03:30:56;96216.84;;;1.97;72.32
50394;BME280;36308;46.312;25.288;2023-04-08T03:33:22;96217.22;;;1.94;72.24
50394;BME280;36308;46.312;25.288;2023-04-08T03:35:47;96218.44;;;1.92;72.37
50394;BME280;36308;46.312;25.288;2023-04-08T03:38:13;96218.00;;;1.88;72.47
50394;BME280;36308;46.312;25.288;2023-04-08T03:40:38;96225.34;;;1.86;72.69
50394;BME280;36308;46.312;25.288;2023-04-08T03:43:03;96234.31;;;1.85;73.15
50394;BME280;36308;46.312;25.288;2023-04-08T03:45:30;96233.69;;;1.83;73.20
50394;BME280;36308;46.312;25.288;2023-04-08T03:47:56;96232.88;;;1.82;73.30
50394;BME280;36308;46.312;25.288;2023-04-08T03:50:21;96232.06;;;1.82;73.44
50394;BME280;36308;46.312;25.288;2023-04-08T03:52:47;96239.19;;;1.81;72.62
50394;BME280;36308;46.312;25.288;2023-04-08T03:55:13;96238.38;;;1.81;73.19
50394;BME280;36308;46.312;25.288;2023-04-08T03:57:38;96242.03;;;1.80;73.44
50394;BME280;36308;46.312;25.288;2023-04-08T04:00:04;96246.53;;;1.79;73.37
50394;BME280;36308;46.312;25.288;2023-04-08T04:02:30;96239.56;;;1.78;72.84
50394;BME280;36308;46.312;25.288;2023-04-08T04:04:55;96247.34;;;1.80;73.75
50394;BME280;36308;46.312;25.288;2023-04-08T04:07:20;96243.69;;;1.81;73.72
50394;BME280;36308;46.312;25.288;2023-04-08T04:09:46;96251.41;;;1.82;73.35
50394;BME280;36308;46.312;25.288;2023-04-08T04:12:11;96252.25;;;1.83;73.66
50394;BME280;36308;46.312;25.288;2023-04-08T04:14:37;96248.56;;;1.84;73.86
50394;BME280;36308;46.312;25.288;2023-04-08T04:17:02;96257.16;;;1.86;73.49
50394;BME280;36308;46.312;25.288;2023-04-08T04:19:31;96257.97;;;1.87;73.82
50394;BME280;36308;46.312;25.288;2023-04-08T04:21:56;96258.59;;;1.89;73.39
50394;BME280;36308;46.312;25.288;2023-04-08T04:24:22;96263.69;;;1.90;73.79
50394;BME280;36308;46.312;25.288;2023-04-08T04:26:47;96265.34;;;1.91;73.45
50394;BME280;36308;46.312;25.288;2023-04-08T04:29:13;96270.66;;;1.91;73.46
50394;BME280;36308;46.312;25.288;2023-04-08T04:31:38;96270.25;;;1.94;74.01
50394;BME280;36308;46.312;25.288;2023-04-08T04:34:04;96281.47;;;1.96;74.34
50394;BME280;36308;46.312;25.288;2023-04-08T04:36:30;96285.97;;;1.96;73.46
50394;BME280;36308;46.312;25.288;2023-04-08T04:38:56;96293.09;;;1.95;74.08
50394;BME280;36308;46.312;25.288;2023-04-08T04:41:21;96292.28;;;1.95;73.90
50394;BME280;36308;46.312;25.288;2023-04-08T04:43:47;96305.75;;;1.93;73.34
50394;BME280;36308;46.312;25.288;2023-04-08T04:46:13;96306.56;;;1.94;73.51
50394;BME280;36308;46.312;25.288;2023-04-08T04:48:39;96294.91;;;1.95;73.67
50394;BME280;36308;46.312;25.288;2023-04-08T04:51:04;96301.06;;;1.95;74.01
50394;BME280;36308;46.312;25.288;2023-04-08T04:53:31;96310.66;;;1.96;73.56
50394;BME280;36308;46.312;25.288;2023-04-08T04:55:57;96303.31;;;1.98;74.09
50394;BME280;36308;46.312;25.288;2023-04-08T04:58:23;96307.63;;;1.99;73.85
50394;BME280;36308;46.312;25.288;2023-04-08T05:00:48;96311.88;;;2.00;73.70
50394;BME280;36308;46.312;25.288;2023-04-08T05:03:14;96317.81;;;2.02;74.30
50394;BME280;36308;46.312;25.288;2023-04-08T05:05:39;96317.00;;;2.02;73.50
50394;BME280;36308;46.312;25.288;2023-04-08T05:08:04;96300.91;;;2.04;74.24
50394;BME280;36308;46.312;25.288;2023-04-08T05:10:31;96323.75;;;2.05;74.42
50394;BME280;36308;46.312;25.288;2023-04-08T05:12:57;96319.88;;;2.07;73.95
50394;BME280;36308;46.312;25.288;2023-04-08T05:15:22;96321.34;;;2.10;74.38
50394;BME280;36308;46.312;25.288;2023-04-08T05:17:48;96323.75;;;2.11;73.90
50394;BME280;36308;46.312;25.288;2023-04-08T05:20:13;96327.88;;;2.14;74.48
50394;BME280;36308;46.312;25.288;2023-04-08T05:22:39;96333.19;;;2.14;73.98
50394;BME280;36308;46.312;25.288;2023-04-08T05:25:05;96336.84;;;2.13;73.80
50394;BME280;36308;46.312;25.288;2023-04-08T05:27:30;96337.66;;;2.13;74.43
50394;BME280;36308;46.312;25.288;2023-04-08T05:29:56;96320.50;;;2.09;74.45
50394;BME280;36308;46.312;25.288;2023-04-08T05:32:21;96336.84;;;2.13;73.77
50394;BME280;36308;46.312;25.288;2023-04-08T05:34:47;96327.88;;;2.14;73.99
50394;BME280;36308;46.312;25.288;2023-04-08T05:37:12;96325.84;;;2.16;74.21
50394;BME280;36308;46.312;25.288;2023-04-08T05:39:38;96329.13;;;2.18;74.24
50394;BME280;36308;46.312;25.288;2023-04-08T05:42:03;96325.03;;;2.22;74.01
50394;BME280;36308;46.312;25.288;2023-04-08T05:44:29;96333.63;;;2.24;74.83
50394;BME280;36308;46.312;25.288;2023-04-08T05:46:55;96343.84;;;2.27;74.12
50394;BME280;36308;46.312;25.288;2023-04-08T05:49:22;96343.25;;;2.32;73.99
50394;BME280;36308;46.312;25.288;2023-04-08T05:51:48;96342.03;;;2.34;74.89
50394;BME280;36308;46.312;25.288;2023-04-08T05:54:13;96347.56;;;2.39;74.87
50394;BME280;36308;46.312;25.288;2023-04-08T05:56:39;96345.13;;;2.45;74.36
50394;BME280;36308;46.312;25.288;2023-04-08T05:59:04;96345.38;;;2.50;74.92
50394;BME280;36308;46.312;25.288;2023-04-08T06:01:30;96343.94;;;2.54;74.23
50394;BME280;36308;46.312;25.288;2023-04-08T06:03:55;96349.28;;;2.60;74.41
50394;BME280;36308;46.312;25.288;2023-04-08T06:06:21;96354.59;;;2.67;74.22
50394;BME280;36308;46.312;25.288;2023-04-08T06:08:47;96353.78;;;2.73;74.29
50394;BME280;36308;46.312;25.288;2023-04-08T06:11:12;96355.47;;;2.81;74.94
50394;BME280;36308;46.312;25.288;2023-04-08T06:13:38;96351.81;;;2.89;74.10
50394;BME280;36308;46.312;25.288;2023-04-08T06:16:11;96355.09;;;2.97;75.03
50394;BME280;36308;46.312;25.288;2023-04-08T06:18:37;96358.78;;;3.03;74.45
50394;BME280;36308;46.312;25.288;2023-04-08T06:21:02;96355.91;;;3.11;74.07
50394;BME280;36308;46.312;25.288;2023-04-08T06:23:28;96357.56;;;3.19;74.42
50394;BME280;36308;46.312;25.288;2023-04-08T06:25:53;96352.84;;;3.28;73.92
50394;BME280;36308;46.312;25.288;2023-04-08T06:28:18;96352.03;;;3.34;74.11
50394;BME280;36308;46.312;25.288;2023-04-08T06:30:44;96360.44;;;3.44;74.03
50394;BME280;36308;46.312;25.288;2023-04-08T06:33:09;96358.59;;;3.51;73.98
50394;BME280;36308;46.312;25.288;2023-04-08T06:35:35;96353.91;;;3.60;74.26
50394;BME280;36308;46.312;25.288;2023-04-08T06:38:03;96364.13;;;3.70;73.75
50394;BME280;36308;46.312;25.288;2023-04-08T06:40:29;96355.94;;;3.78;73.26
50394;BME280;36308;46.312;25.288;2023-04-08T06:42:54;96355.09;;;3.84;73.32
50394;BME280;36308;46.312;25.288;2023-04-08T06:45:20;96362.25;;;3.97;73.55
50394;BME280;36308;46.312;25.288;2023-04-08T06:47:45;96359.13;;;4.07;73.61
50394;BME280;36308;46.312;25.288;2023-04-08T06:50:11;96361.38;;;4.16;73.32
50394;BME280;36308;46.312;25.288;2023-04-08T06:52:36;96370.16;;;4.23;72.89
50394;BME280;36308;46.312;25.288;2023-04-08T06:55:02;96372.38;;;4.33;72.93
50394;BME280;36308;46.312;25.288;2023-04-08T06:57:46;96376.44;;;4.42;71.92
50394;BME280;36308;46.312;25.288;2023-04-08T07:00:12;96372.72;;;4.50;72.12
50394;BME280;36308;46.312;25.288;2023-04-08T07:02:37;96367.16;;;4.58;71.51
50394;BME280;36308;46.312;25.288;2023-04-08T07:05:03;96368.78;;;4.66;70.96
50394;BME280;36308;46.312;25.288;2023-04-08T07:07:29;96374.91;;;4.73;70.59
50394;BME280;36308;46.312;25.288;2023-04-08T07:09:54;96373.81;;;4.81;70.31
50394;BME280;36308;46.312;25.288;2023-04-08T07:12:20;96369.91;;;4.90;70.26
50394;BME280;36308;46.312;25.288;2023-04-08T07:14:45;96367.78;;;4.99;69.60
50394;BME280;36308;46.312;25.288;2023-04-08T07:17:11;96366.50;;;5.08;69.15
50394;BME280;36308;46.312;25.288;2023-04-08T07:19:36;96367.88;;;5.17;69.12
50394;BME280;36308;46.312;25.288;2023-04-08T07:22:02;96365.56;;;5.28;68.95
50394;BME280;36308;46.312;25.288;2023-04-08T07:24:28;96373.91;;;5.38;68.67
50394;BME280;36308;46.312;25.288;2023-04-08T07:26:53;96369.94;;;5.47;68.31
50394;BME280;36308;46.312;25.288;2023-04-08T07:29:21;96368.63;;;5.56;68.31
50394;BME280;36308;46.312;25.288;2023-04-08T07:31:46;96369.97;;;5.65;67.88
50394;BME280;36308;46.312;25.288;2023-04-08T07:34:12;96376.66;;;5.75;66.93
50394;BME280;36308;46.312;25.288;2023-04-08T07:36:37;96374.56;;;5.83;66.26
50394;BME280;36308;46.312;25.288;2023-04-08T07:39:03;96380.63;;;5.91;66.05
50394;BME280;36308;46.312;25.288;2023-04-08T07:41:29;96375.25;;;5.97;66.04
50394;BME280;36308;46.312;25.288;2023-04-08T07:43:54;96379.31;;;6.06;66.10
50394;BME280;36308;46.312;25.288;2023-04-08T07:46:20;96383.31;;;6.16;65.72
50394;BME280;36308;46.312;25.288;2023-04-08T07:48:46;96375.00;;;6.24;65.42
50394;BME280;36308;46.312;25.288;2023-04-08T07:51:11;96375.31;;;6.34;64.98
50394;BME280;36308;46.312;25.288;2023-04-08T07:53:38;96383.84;;;6.43;64.93
50394;BME280;36308;46.312;25.288;2023-04-08T07:56:14;96380.06;;;6.51;64.50
50394;BME280;36308;46.312;25.288;2023-04-08T07:58:40;96382.44;;;6.59;64.41
50394;BME280;36308;46.312;25.288;2023-04-08T08:01:15;96390.16;;;6.67;63.61
50394;BME280;36308;46.312;25.288;2023-04-08T08:03:42;96386.00;;;6.71;62.83
50394;BME280;36308;46.312;25.288;2023-04-08T08:06:10;96381.25;;;6.73;62.48
50394;BME280;36308;46.312;25.288;2023-04-08T08:08:36;96377.66;;;6.79;61.20
50394;BME280;36308;46.312;25.288;2023-04-08T08:11:01;96376.97;;;6.84;60.97
50394;BME280;36308;46.312;25.288;2023-04-08T08:13:27;96381.81;;;6.94;60.16
50394;BME280;36308;46.312;25.288;2023-04-08T08:15:52;96376.38;;;7.00;59.91
50394;BME280;36308;46.312;25.288;2023-04-08T08:18:18;96378.13;;;7.06;59.93
50394;BME280;36308;46.312;25.288;2023-04-08T08:20:43;96380.50;;;7.15;59.33
50394;BME280;36308;46.312;25.288;2023-04-08T08:23:09;96380.97;;;7.23;59.48
50394;BME280;36308;46.312;25.288;2023-04-08T08:25:34;96386.00;;;7.32;59.25
50394;BME280;36308;46.312;25.288;2023-04-08T08:28:01;96370.53;;;7.34;59.24
50394;BME280;36308;46.312;25.288;2023-04-08T08:30:27;96382.69;;;7.48;59.33
50394;BME280;36308;46.312;25.288;2023-04-08T08:32:52;96388.88;;;7.60;59.18
50394;BME280;36308;46.312;25.288;2023-04-08T08:35:18;96383.78;;;7.71;58.85
50394;BME280;36308;46.312;25.288;2023-04-08T08:37:44;96379.69;;;7.80;58.44
50394;BME280;36308;46.312;25.288;2023-04-08T08:40:09;96386.69;;;7.93;58.39
50394;BME280;36308;46.312;25.288;2023-04-08T08:42:35;96381.94;;;8.06;58.45
50394;BME280;36308;46.312;25.288;2023-04-08T08:45:02;96382.88;;;8.24;57.50
50394;BME280;36308;46.312;25.288;2023-04-08T08:47:27;96383.19;;;8.39;57.75
50394;BME280;36308;46.312;25.288;2023-04-08T08:49:53;96387.72;;;8.62;57.37
50394;BME280;36308;46.312;25.288;2023-04-08T08:52:19;96383.13;;;8.86;57.67
50394;BME280;36308;46.312;25.288;2023-04-08T08:54:44;96390.28;;;9.09;56.09
50394;BME280;36308;46.312;25.288;2023-04-08T08:57:18;96384.81;;;9.33;56.23
50394;BME280;36308;46.312;25.288;2023-04-08T08:59:45;96390.38;;;9.60;54.98
50394;BME280;36308;46.312;25.288;2023-04-08T09:02:30;96392.75;;;9.90;53.38
50394;BME280;36308;46.312;25.288;2023-04-08T09:05:01;96404.31;;;10.08;52.93
50394;BME280;36308;46.312;25.288;2023-04-08T09:07:29;96395.84;;;10.16;51.82
50394;BME280;36308;46.312;25.288;2023-04-08T09:09:56;96390.03;;;10.24;52.24
50394;BME280;36308;46.312;25.288;2023-04-08T09:12:23;96383.06;;;10.40;51.60
50394;BME280;36308;46.312;25.288;2023-04-08T09:14:49;96393.09;;;10.67;51.29
50394;BME280;36308;46.312;25.288;2023-04-08T09:17:15;96398.22;;;10.90;50.69
50394;BME280;36308;46.312;25.288;2023-04-08T09:20:11;96393.00;;;11.06;48.02
50394;BME280;36308;46.312;25.288;2023-04-08T09:25:31;96396.66;;;11.17;47.92
50394;BME280;36308;46.312;25.288;2023-04-08T09:27:57;96385.13;;;11.21;47.85
50394;BME280;36308;46.312;25.288;2023-04-08T09:30:24;96387.59;;;11.28;48.11
50394;BME280;36308;46.312;25.288;2023-04-08T09:32:55;96388.03;;;11.42;48.31
50394;BME280;36308;46.312;25.288;2023-04-08T09:35:21;96389.28;;;11.61;47.39
50394;BME280;36308;46.312;25.288;2023-04-08T09:37:48;96402.91;;;11.77;46.23
50394;BME280;36308;46.312;25.288;2023-04-08T09:40:14;96390.63;;;11.91;46.20
50394;BME280;36308;46.312;25.288;2023-04-08T09:42:44;96394.28;;;12.07;46.19
50394;BME280;36308;46.312;25.288;2023-04-08T09:45:11;96401.41;;;12.28;45.19
50394;BME280;36308;46.312;25.288;2023-04-08T09:47:43;96391.25;;;12.41;44.81
50394;BME280;36308;46.312;25.288;2023-04-08T09:50:15;96397.56;;;12.57;44.27
50394;BME280;36308;46.312;25.288;2023-04-08T09:52:47;96405.69;;;12.62;43.58
50394;BME280;36308;46.312;25.288;2023-04-08T09:55:21;96398.97;;;12.64;43.95
50394;BME280;36308;46.312;25.288;2023-04-08T09:58:21;96391.13;;;12.63;43.69
50394;BME280;36308;46.312;25.288;2023-04-08T10:00:53;96401.09;;;12.62;44.08
50394;BME280;36308;46.312;25.288;2023-04-08T10:05:51;96394.38;;;12.65;43.34
50394;BME280;36308;46.312;25.288;2023-04-08T10:08:18;96398.19;;;12.74;43.87
50394;BME280;36308;46.312;25.288;2023-04-08T10:10:44;96401.47;;;12.81;43.44
50394;BME280;36308;46.312;25.288;2023-04-08T10:13:10;96404.22;;;12.97;44.49
50394;BME280;36308;46.312;25.288;2023-04-08T10:15:37;96408.66;;;13.18;44.41
50394;BME280;36308;46.312;25.288;2023-04-08T10:23:16;96414.94;;;13.39;41.81
50394;BME280;36308;46.312;25.288;2023-04-08T10:25:43;96412.75;;;13.31;41.63
50394;BME280;36308;46.312;25.288;2023-04-08T10:30:48;96415.38;;;13.15;40.81
50394;BME280;36308;46.312;25.288;2023-04-08T10:33:16;96419.41;;;13.08;40.37
50394;BME280;36308;46.312;25.288;2023-04-08T10:35:51;96414.75;;;12.98;40.36
50394;BME280;36308;46.312;25.288;2023-04-08T10:38:18;96419.59;;;12.91;40.72
50394;BME280;36308;46.312;25.288;2023-04-08T10:40:44;96417.13;;;12.84;41.15
50394;BME280;36308;46.312;25.288;2023-04-08T10:43:11;96420.88;;;12.78;41.25
50394;BME280;36308;46.312;25.288;2023-04-08T10:45:38;96417.34;;;12.72;41.15
50394;BME280;36308;46.312;25.288;2023-04-08T10:48:20;96418.41;;;12.66;40.88
50394;BME280;36308;46.312;25.288;2023-04-08T10:53:25;96419.41;;;12.55;40.67
50394;BME280;36308;46.312;25.288;2023-04-08T10:55:51;96415.03;;;12.49;40.99
50394;BME280;36308;46.312;25.288;2023-04-08T10:58:17;96418.78;;;12.43;40.74
50394;BME280;36308;46.312;25.288;2023-04-08T11:00:42;96413.63;;;12.36;41.06
50394;BME280;36308;46.312;25.288;2023-04-08T11:03:09;96420.66;;;12.37;41.36
50394;BME280;36308;46.312;25.288;2023-04-08T11:05:36;96415.75;;;12.34;41.35
50394;BME280;36308;46.312;25.288;2023-04-08T11:08:03;96418.69;;;12.32;41.48
50394;BME280;36308;46.312;25.288;2023-04-08T11:10:29;96424.38;;;12.31;41.81
50394;BME280;36308;46.312;25.288;2023-04-08T11:12:56;96418.97;;;12.31;41.92
50394;BME280;36308;46.312;25.288;2023-04-08T11:15:23;96421.06;;;12.24;40.92
50394;BME280;36308;46.312;25.288;2023-04-08T11:17:49;96419.41;;;12.18;41.08
50394;BME280;36308;46.312;25.288;2023-04-08T11:20:16;96420.19;;;12.13;41.44
50394;BME280;36308;46.312;25.288;2023-04-08T11:22:43;96422.63;;;12.15;41.82
50394;BME280;36308;46.312;25.288;2023-04-08T11:25:10;96411.84;;;12.15;42.08
50394;BME280;36308;46.312;25.288;2023-04-08T11:27:36;96413.47;;;12.16;41.94
50394;BME280;36308;46.312;25.288;2023-04-08T11:30:03;96413.78;;;12.19;41.66
50394;BME280;36308;46.312;25.288;2023-04-08T11:32:30;96408.69;;;12.23;42.62
50394;BME280;36308;46.312;25.288;2023-04-08T11:34:59;96400.03;;;12.21;42.60
50394;BME280;36308;46.312;25.288;2023-04-08T11:37:26;96414.16;;;12.33;42.57
50394;BME280;36308;46.312;25.288;2023-04-08T11:39:53;96407.72;;;12.39;42.80
50394;BME280;36308;46.312;25.288;2023-04-08T11:42:28;96412.88;;;12.46;42.46
50394;BME280;36308;46.312;25.288;2023-04-08T11:44:54;96400.25;;;12.51;41.85
50394;BME280;36308;46.312;25.288;2023-04-08T11:47:20;96412.13;;;12.56;41.68
50394;BME280;36308;46.312;25.288;2023-04-08T11:49:46;96405.66;;;12.57;41.77
50394;BME280;36308;46.312;25.288;2023-04-08T11:52:12;96414.34;;;12.64;41.80
50394;BME280;36308;46.312;25.288;2023-04-08T11:54:42;96409.75;;;12.69;41.71
50394;BME280;36308;46.312;25.288;2023-04-08T11:57:08;96404.66;;;12.73;42.00
50394;BME280;36308;46.312;25.288;2023-04-08T11:59:37;96397.69;;;12.77;42.05
50394;BME280;36308;46.312;25.288;2023-04-08T12:02:03;96402.03;;;12.83;42.34
50394;BME280;36308;46.312;25.288;2023-04-08T12:04:29;96404.22;;;12.91;42.45
50394;BME280;36308;46.312;25.288;2023-04-08T12:06:55;96396.97;;;12.97;41.84
50394;BME280;36308;46.312;25.288;2023-04-08T12:09:21;96399.41;;;13.04;41.11
50394;BME280;36308;46.312;25.288;2023-04-08T12:11:46;96402.41;;;13.07;41.14
50394;BME280;36308;46.312;25.288;2023-04-08T12:14:12;96399.44;;;13.14;40.85
50394;BME280;36308;46.312;25.288;2023-04-08T12:16:38;96400.53;;;13.18;40.81
50394;BME280;36308;46.312;25.288;2023-04-08T12:19:03;96401.09;;;13.20;40.89
50394;BME280;36308;46.312;25.288;2023-04-08T12:21:29;96391.38;;;13.24;41.03
50394;BME280;36308;46.312;25.288;2023-04-08T12:23:56;96400.03;;;13.26;40.73
50394;BME280;36308;46.312;25.288;2023-04-08T12:26:22;96396.56;;;13.31;41.03
50394;BME280;36308;46.312;25.288;2023-04-08T12:28:47;96392.78;;;13.37;41.15
50394;BME280;36308;46.312;25.288;2023-04-08T12:31:13;96398.75;;;13.44;40.36
50394;BME280;36308;46.312;25.288;2023-04-08T12:33:38;96395.53;;;13.47;40.07
50394;BME280;36308;46.312;25.288;2023-04-08T12:36:04;96398.78;;;13.49;40.29
50394;BME280;36308;46.312;25.288;2023-04-08T12:38:29;96397.41;;;13.52;40.45
50394;BME280;36308;46.312;25.288;2023-04-08T12:40:55;96391.75;;;13.53;39.93
50394;BME280;36308;46.312;25.288;2023-04-08T12:43:21;96388.78;;;13.50;40.22
50394;BME280;36308;46.312;25.288;2023-04-08T12:45:48;96389.59;;;13.56;40.18
50394;BME280;36308;46.312;25.288;2023-04-08T12:48:13;96384.75;;;13.58;40.45
50394;BME280;36308;46.312;25.288;2023-04-08T12:50:39;96383.09;;;13.57;40.10
50394;BME280;36308;46.312;25.288;2023-04-08T12:53:05;96383.66;;;13.53;39.96
50394;BME280;36308;46.312;25.288;2023-04-08T12:55:31;96381.22;;;13.52;40.12
50394;BME280;36308;46.312;25.288;2023-04-08T12:57:57;96380.41;;;13.51;40.20
50394;BME280;36308;46.312;25.288;2023-04-08T13:00:22;96375.81;;;13.52;40.48
50394;BME280;36308;46.312;25.288;2023-04-08T13:02:48;96382.00;;;13.52;40.72
50394;BME280;36308;46.312;25.288;2023-04-08T13:05:13;96373.09;;;13.52;40.20
50394;BME280;36308;46.312;25.288;2023-04-08T13:07:39;96379.59;;;13.51;40.66
50394;BME280;36308;46.312;25.288;2023-04-08T13:10:06;96375.25;;;13.50;40.23
50394;BME280;36308;46.312;25.288;2023-04-08T13:12:32;96373.13;;;13.47;40.02
50394;BME280;36308;46.312;25.288;2023-04-08T13:14:58;96371.22;;;13.47;40.38
50394;BME280;36308;46.312;25.288;2023-04-08T13:17:24;96365.00;;;13.52;40.83
50394;BME280;36308;46.312;25.288;2023-04-08T13:19:49;96365.00;;;13.62;40.82